Time;durP1;ratioP1;P1;durP2;ratioP2;P2;SDS_P1;SDS_P2;PMS_P1;PMS_P2;Temp;Humidity;BMP_temperature;BMP_pressure;BME280_temperature;BME280_humidity;BME280_pressure;Samples;Min_cycle;Max_cycle;Signal;HPM_P1;HPM_P2
2022/03/15 00:00:32;;;;;;;15.10;10.93;;;10.30;95.20;;;;;;5021772;28;20084;-61
2022/03/15 00:03:00;;;;;;;15.70;11.75;;;10.30;95.20;;;;;;5025704;28;20072;-60
2022/03/15 00:05:28;;;;;;;16.00;10.05;;;10.30;95.20;;;;;;5029024;28;20084;-61
2022/03/15 00:07:58;;;;;;;17.33;11.05;;;10.30;95.20;;;;;;5012804;28;20046;-60
2022/03/15 00:10:27;;;;;;;16.00;10.88;;;10.30;95.20;;;;;;5015385;28;20395;-60
2022/03/15 00:12:56;;;;;;;16.48;10.38;;;10.20;95.20;;;;;;5013310;28;20033;-60
2022/03/15 00:15:25;;;;;;;13.45;10.63;;;10.20;95.20;;;;;;4996199;28;20072;-62
2022/03/15 00:17:54;;;;;;;15.00;9.57;;;10.20;95.20;;;;;;4998777;28;20069;-60
2022/03/15 00:20:23;;;;;;;15.55;9.85;;;10.20;95.30;;;;;;5032599;28;20400;-62
2022/03/15 00:22:55;;;;;;;14.25;9.88;;;10.20;95.30;;;;;;5042474;28;20060;-61
2022/03/15 00:25:23;;;;;;;12.13;8.30;;;10.10;95.30;;;;;;5028967;28;20041;-60
2022/03/15 00:27:51;;;;;;;12.57;8.85;;;10.10;95.20;;;;;;5010054;28;20407;-60
2022/03/15 00:30:23;;;;;;;12.98;9.35;;;10.10;95.30;;;;;;4995746;28;20512;-60
2022/03/15 00:32:51;;;;;;;14.73;9.40;;;10.10;95.30;;;;;;5041286;28;20052;-60
2022/03/15 00:35:23;;;;;;;13.75;9.38;;;10.10;95.30;;;;;;5011849;28;20412;-61
2022/03/15 00:37:53;;;;;;;12.18;7.80;;;10.10;95.30;;;;;;5029215;28;20096;-61
2022/03/15 00:40:24;;;;;;;11.07;7.97;;;10.10;95.30;;;;;;5014786;28;20122;-60
2022/03/15 00:42:51;;;;;;;14.00;8.63;;;10.10;95.30;;;;;;5018568;28;20052;-61
2022/03/15 00:45:28;;;;;;;10.93;7.38;;;10.00;95.30;;;;;;5009914;28;20403;-60
2022/03/15 00:47:58;;;;;;;9.95;7.68;;;10.00;95.40;;;;;;5013774;28;20049;-60
2022/03/15 00:50:27;;;;;;;10.95;7.25;;;10.00;95.30;;;;;;5014023;28;20045;-60
2022/03/15 00:52:57;;;;;;;10.80;7.80;;;10.00;95.30;;;;;;5031059;28;20451;-60
2022/03/15 00:55:24;;;;;;;19.30;10.18;;;10.00;95.40;;;;;;5005929;28;20037;-61
2022/03/15 00:57:52;;;;;;;15.55;10.63;;;10.00;95.50;;;;;;5031623;28;20057;-61
2022/03/15 01:00:21;;;;;;;14.82;8.70;;;10.00;95.50;;;;;;5013394;28;20075;-61
2022/03/15 01:02:49;;;;;;;13.57;9.60;;;9.90;95.40;;;;;;5013452;28;20052;-61
2022/03/15 01:05:16;;;;;;;17.13;9.50;;;9.90;95.40;;;;;;5030060;28;20033;-61
2022/03/15 01:07:44;;;;;;;12.90;8.63;;;9.90;95.40;;;;;;5036416;28;20048;-61
2022/03/15 01:10:13;;;;;;;15.88;9.65;;;9.90;95.50;;;;;;5030166;28;20044;-60
2022/03/15 01:12:41;;;;;;;12.57;8.63;;;9.90;95.50;;;;;;5014296;28;20507;-60
2022/03/15 01:15:09;;;;;;;12.25;7.80;;;9.80;95.50;;;;;;5009840;28;20057;-60
2022/03/15 01:17:36;;;;;;;10.30;8.00;;;9.80;95.50;;;;;;5030260;28;20049;-61
2022/03/15 01:20:07;;;;;;;12.75;7.47;;;9.80;95.60;;;;;;5028802;28;20446;-60
2022/03/15 01:22:36;;;;;;;10.20;7.32;;;9.80;95.70;;;;;;5014485;28;20140;-61
2022/03/15 01:25:06;;;;;;;14.00;8.05;;;9.80;95.70;;;;;;5020452;28;20120;-60
2022/03/15 01:27:37;;;;;;;10.57;6.82;;;9.90;95.60;;;;;;5043511;28;20071;-60
2022/03/15 01:30:06;;;;;;;8.05;6.40;;;9.80;95.50;;;;;;5021195;28;20062;-62
2022/03/15 01:32:34;;;;;;;11.10;6.68;;;9.80;95.60;;;;;;4997719;28;20095;-61
2022/03/15 01:35:04;;;;;;;10.13;7.10;;;9.80;95.60;;;;;;5025950;28;20056;-64
2022/03/15 01:37:31;;;;;;;14.80;8.38;;;9.80;95.60;;;;;;5022583;28;20106;-60
2022/03/15 01:40:06;;;;;;;9.98;6.90;;;9.80;95.70;;;;;;5013183;28;20492;-60
2022/03/15 01:42:37;;;;;;;12.63;7.10;;;9.80;95.60;;;;;;4998063;28;20057;-60
2022/03/15 01:45:06;;;;;;;9.88;6.72;;;9.70;95.60;;;;;;5004612;28;20058;-60
2022/03/15 01:47:37;;;;;;;9.90;7.03;;;9.80;95.70;;;;;;4999805;28;20057;-60
2022/03/15 01:50:05;;;;;;;9.15;6.38;;;9.70;95.50;;;;;;5006905;28;20550;-60
2022/03/15 01:52:33;;;;;;;13.90;8.48;;;9.70;95.50;;;;;;4997628;28;20042;-60
2022/03/15 01:55:00;;;;;;;8.30;6.45;;;9.60;95.60;;;;;;5010397;28;20435;-60
2022/03/15 01:57:28;;;;;;;9.45;7.35;;;9.60;95.60;;;;;;5024120;28;20067;-60
2022/03/15 01:59:56;;;;;;;8.77;6.60;;;9.60;95.70;;;;;;5022109;28;20142;-60
2022/03/15 02:02:24;;;;;;;11.05;7.57;;;9.60;95.70;;;;;;5013710;28;20052;-60
2022/03/15 02:04:51;;;;;;;12.55;8.55;;;9.60;95.70;;;;;;5013772;28;20407;-60
2022/03/15 02:07:19;;;;;;;11.30;7.15;;;9.60;95.70;;;;;;5031402;28;20042;-60
2022/03/15 02:09:48;;;;;;;12.85;8.13;;;9.60;95.70;;;;;;5013450;28;20045;-60
2022/03/15 02:12:16;;;;;;;9.93;6.75;;;9.60;95.80;;;;;;5036255;28;20554;-60
2022/03/15 02:14:43;;;;;;;14.55;7.25;;;9.60;95.80;;;;;;5025607;28;20048;-60
2022/03/15 02:17:11;;;;;;;11.40;7.40;;;9.60;95.70;;;;;;5013845;28;20152;-60
2022/03/15 02:19:39;;;;;;;9.80;6.35;;;9.60;95.70;;;;;;5012599;28;20045;-60
2022/03/15 02:22:07;;;;;;;8.07;6.68;;;9.60;95.80;;;;;;4998578;28;20496;-60
2022/03/15 02:24:35;;;;;;;11.13;7.32;;;9.60;95.70;;;;;;5005265;28;20042;-61
2022/03/15 02:27:02;;;;;;;10.02;7.72;;;9.60;95.80;;;;;;5017514;28;20121;-60
2022/03/15 02:29:30;;;;;;;12.10;6.78;;;9.50;95.80;;;;;;5026662;28;20038;-60
2022/03/15 02:31:58;;;;;;;9.27;6.25;;;9.50;95.80;;;;;;5027912;28;20045;-60
2022/03/15 02:34:26;;;;;;;12.77;6.70;;;9.50;95.80;;;;;;4994958;28;20503;-60
2022/03/15 02:36:53;;;;;;;11.82;7.43;;;9.50;95.80;;;;;;5034581;28;20041;-60
2022/03/15 02:39:22;;;;;;;10.35;6.90;;;9.50;95.70;;;;;;5015018;28;20402;-60
2022/03/15 02:41:49;;;;;;;12.02;6.72;;;9.50;95.70;;;;;;5003419;28;20064;-60
2022/03/15 02:44:19;;;;;;;8.57;6.13;;;9.50;95.80;;;;;;5010838;28;20038;-60
2022/03/15 02:46:50;;;;;;;9.82;6.93;;;9.40;95.80;;;;;;5033853;28;20064;-60
2022/03/15 02:49:18;;;;;;;9.70;5.95;;;9.40;95.70;;;;;;5016880;28;20495;-60
2022/03/15 02:51:45;;;;;;;9.52;7.15;;;9.40;95.70;;;;;;5016706;28;20458;-60
2022/03/15 02:54:13;;;;;;;9.80;6.32;;;9.40;95.70;;;;;;5029847;28;20041;-60
2022/03/15 02:56:47;;;;;;;8.65;5.85;;;9.40;95.70;;;;;;5034458;28;20077;-62
2022/03/15 02:59:14;;;;;;;11.48;6.95;;;9.40;95.70;;;;;;5005425;28;20072;-60
2022/03/15 03:01:46;;;;;;;7.30;5.53;;;9.40;95.70;;;;;;5016847;28;20072;-61
2022/03/15 03:04:18;;;;;;;9.38;6.22;;;9.40;95.80;;;;;;5022517;28;20072;-61
2022/03/15 03:06:46;;;;;;;8.50;5.53;;;9.40;95.80;;;;;;5018833;28;20084;-60
2022/03/15 03:09:16;;;;;;;7.55;5.65;;;9.40;95.80;;;;;;4996140;28;20042;-61
2022/03/15 03:11:43;;;;;;;6.78;5.35;;;9.40;95.80;;;;;;5034378;28;20041;-60
2022/03/15 03:14:15;;;;;;;9.43;5.95;;;9.40;95.80;;;;;;5028246;28;20049;-60
2022/03/15 03:16:43;;;;;;;12.27;6.72;;;9.40;95.80;;;;;;5043616;28;20384;-61
2022/03/15 03:19:11;;;;;;;9.77;6.25;;;9.30;95.80;;;;;;4994670;28;20049;-61
2022/03/15 03:21:38;;;;;;;8.70;6.10;;;9.30;95.90;;;;;;5016834;28;20045;-60
2022/03/15 03:24:09;;;;;;;9.60;6.47;;;9.20;95.90;;;;;;5015771;28;20041;-61
2022/03/15 03:26:38;;;;;;;16.00;6.28;;;9.20;96.00;;;;;;5045688;28;20124;-61
2022/03/15 03:29:11;;;;;;;7.22;4.95;;;9.20;96.10;;;;;;5005128;28;20042;-60
2022/03/15 03:31:41;;;;;;;6.60;4.75;;;9.10;96.10;;;;;;5033985;28;20518;-61
2022/03/15 03:34:09;;;;;;;11.65;5.85;;;9.10;96.10;;;;;;5024763;28;20119;-61
2022/03/15 03:36:37;;;;;;;10.13;6.38;;;9.10;96.20;;;;;;5041459;28;20071;-61
2022/03/15 03:39:24;;;;;;;12.05;5.88;;;9.10;96.10;;;;;;5010662;28;20060;-61
2022/03/15 03:41:52;;;;;;;7.97;5.85;;;9.10;96.20;;;;;;4999905;28;20049;-61
2022/03/15 03:44:19;;;;;;;10.07;6.60;;;9.00;96.10;;;;;;5013075;28;20041;-61
2022/03/15 03:46:47;;;;;;;10.48;6.65;;;9.10;96.10;;;;;;5001431;28;20042;-61
2022/03/15 03:49:14;;;;;;;8.88;6.60;;;9.00;96.50;;;;;;5022429;28;20053;-61
2022/03/15 03:51:43;;;;;;;10.70;7.07;;;9.00;96.30;;;;;;5015726;28;20128;-61
2022/03/15 03:54:10;;;;;;;14.38;7.53;;;9.00;96.30;;;;;;5006433;28;20103;-61
2022/03/15 03:56:38;;;;;;;10.50;6.40;;;9.00;96.20;;;;;;5033360;28;20049;-61
2022/03/15 03:59:07;;;;;;;13.05;7.45;;;9.00;96.20;;;;;;5010705;28;20403;-62
2022/03/15 04:01:35;;;;;;;12.57;7.80;;;9.00;96.10;;;;;;5015594;28;20048;-61
2022/03/15 04:04:05;;;;;;;17.33;7.57;;;9.00;96.20;;;;;;5029238;28;20049;-61
2022/03/15 04:06:34;;;;;;;16.75;8.35;;;8.90;96.20;;;;;;5033381;28;20048;-60
2022/03/15 04:09:03;;;;;;;13.68;7.18;;;8.90;96.50;;;;;;5020467;28;20435;-61
2022/03/15 04:11:31;;;;;;;17.00;9.50;;;8.90;96.30;;;;;;5037310;28;20454;-61
2022/03/15 04:13:59;;;;;;;15.57;8.60;;;8.90;96.30;;;;;;5014146;28;20042;-60
2022/03/15 04:16:29;;;;;;;16.45;9.10;;;8.80;96.30;;;;;;5015676;28;20084;-61
2022/03/15 04:18:57;;;;;;;16.20;9.07;;;8.80;96.40;;;;;;5026032;28;20134;-63
2022/03/15 04:21:24;;;;;;;13.65;7.85;;;8.80;96.40;;;;;;5002075;28;20056;-61
2022/03/15 04:23:54;;;;;;;16.35;10.05;;;8.80;96.40;;;;;;5031526;28;20561;-60
2022/03/15 04:26:22;;;;;;;18.20;10.13;;;8.80;96.50;;;;;;5015231;28;20053;-61
2022/03/15 04:28:50;;;;;;;17.73;11.07;;;8.80;96.50;;;;;;5030893;28;20120;-60
2022/03/15 04:31:18;;;;;;;15.13;9.43;;;8.80;96.40;;;;;;5024604;28;20072;-61
2022/03/15 04:33:49;;;;;;;16.45;9.07;;;8.80;96.50;;;;;;5032967;28;20068;-62
2022/03/15 04:36:16;;;;;;;13.73;8.25;;;8.80;96.40;;;;;;5032899;28;20047;-61
2022/03/15 04:38:46;;;;;;;17.67;8.45;;;8.70;96.40;;;;;;4999451;28;20058;-61
2022/03/15 04:41:14;;;;;;;12.32;7.78;;;8.70;96.50;;;;;;5016204;28;20590;-61
2022/03/15 04:43:41;;;;;;;12.55;8.90;;;8.70;96.50;;;;;;5016731;28;20088;-61
2022/03/15 04:46:09;;;;;;;14.05;7.00;;;8.70;96.50;;;;;;5016758;28;20049;-61
2022/03/15 04:48:39;;;;;;;11.95;7.32;;;8.80;96.60;;;;;;5016366;28;20072;-61
2022/03/15 04:51:08;;;;;;;12.98;8.20;;;8.70;96.50;;;;;;5016485;28;20391;-61
2022/03/15 04:53:36;;;;;;;15.77;7.75;;;8.70;96.50;;;;;;5033800;28;20049;-62
2022/03/15 04:56:04;;;;;;;14.18;8.25;;;8.70;96.50;;;;;;5016409;28;20386;-61
2022/03/15 04:58:32;;;;;;;15.50;9.38;;;8.70;96.40;;;;;;5016091;28;20507;-61
2022/03/15 05:00:59;;;;;;;14.88;7.50;;;8.70;96.40;;;;;;5033707;28;20046;-61
2022/03/15 05:03:27;;;;;;;11.70;7.03;;;8.70;96.40;;;;;;5012699;28;20069;-61
2022/03/15 05:05:54;;;;;;;10.60;6.10;;;8.70;96.50;;;;;;4996598;28;20046;-61
2022/03/15 05:08:22;;;;;;;9.75;6.50;;;8.80;96.60;;;;;;5013814;28;20042;-61
2022/03/15 05:11:07;;;;;;;9.57;6.85;;;8.80;96.70;;;;;;4996875;28;20049;-61
2022/03/15 05:13:45;;;;;;;11.02;6.53;;;8.90;96.80;;;;;;5012586;28;20049;-61
2022/03/15 05:16:18;;;;;;;11.73;6.60;;;9.00;96.70;;;;;;5012908;28;20037;-61
2022/03/15 05:18:48;;;;;;;10.23;6.72;;;9.00;96.50;;;;;;5012772;28;20064;-61
2022/03/15 05:21:16;;;;;;;10.80;6.90;;;9.20;96.40;;;;;;5013734;28;20392;-61
2022/03/15 05:23:46;;;;;;;10.35;7.20;;;9.30;96.20;;;;;;5013783;28;20488;-61
2022/03/15 05:26:15;;;;;;;10.07;6.50;;;9.50;96.10;;;;;;5013643;28;20037;-61
2022/03/15 05:28:45;;;;;;;9.32;6.78;;;9.60;95.90;;;;;;5012587;28;20038;-61
2022/03/15 05:31:12;;;;;;;11.02;6.95;;;9.80;95.80;;;;;;5012479;28;20050;-62
2022/03/15 05:33:43;;;;;;;14.43;8.23;;;9.90;95.60;;;;;;5013800;28;20053;-61
2022/03/15 05:36:13;;;;;;;13.25;7.78;;;10.10;95.40;;;;;;4996201;28;20057;-61
2022/03/15 05:38:42;;;;;;;17.40;10.68;;;10.20;95.20;;;;;;5013721;28;20104;-61
2022/03/15 05:41:10;;;;;;;13.52;9.35;;;10.40;95.20;;;;;;5013669;28;20074;-61
2022/03/15 05:43:51;;;;;;;13.48;8.98;;;10.50;95.00;;;;;;5013513;28;20093;-61
2022/03/15 05:46:19;;;;;;;15.77;9.95;;;10.70;94.90;;;;;;5012658;28;20141;-62
2022/03/15 05:48:47;;;;;;;15.52;10.93;;;10.80;94.90;;;;;;4996294;28;20046;-61
2022/03/15 05:51:14;;;;;;;16.33;12.30;;;11.00;94.70;;;;;;5013389;28;20045;-61
2022/03/15 05:53:42;;;;;;;14.10;11.85;;;11.10;94.50;;;;;;5013444;28;20042;-61
2022/03/15 05:56:12;;;;;;;16.10;10.13;;;11.30;94.50;;;;;;5013860;28;20038;-61
2022/03/15 05:58:42;;;;;;;12.73;10.35;;;11.50;94.40;;;;;;5017311;28;20092;-61
2022/03/15 06:01:10;;;;;;;17.17;11.20;;;11.60;94.30;;;;;;5017481;28;20496;-61
2022/03/15 06:03:37;;;;;;;13.60;9.60;;;11.80;94.20;;;;;;5016005;28;20050;-61
2022/03/15 06:06:06;;;;;;;16.67;10.80;;;11.90;94.00;;;;;;4999917;28;20112;-61
2022/03/15 06:08:34;;;;;;;15.02;9.80;;;12.10;93.90;;;;;;4999806;28;20074;-61
2022/03/15 06:11:03;;;;;;;11.82;8.70;;;12.30;93.80;;;;;;4999880;28;20518;-61
2022/03/15 06:13:30;;;;;;;13.15;9.30;;;12.40;93.60;;;;;;5016145;28;20476;-61
2022/03/15 06:15:58;;;;;;;13.05;9.35;;;12.60;93.50;;;;;;5016117;28;20500;-61
2022/03/15 06:18:26;;;;;;;12.65;9.70;;;12.80;93.10;;;;;;5017118;28;20038;-61
2022/03/15 06:20:53;;;;;;;18.17;10.43;;;13.00;93.00;;;;;;5015731;28;20542;-61
2022/03/15 06:23:23;;;;;;;17.17;10.68;;;13.30;92.70;;;;;;5015558;28;20602;-61
2022/03/15 06:25:51;;;;;;;13.93;8.73;;;13.50;92.50;;;;;;5015830;28;20093;-61
2022/03/15 06:28:19;;;;;;;13.95;10.43;;;13.70;92.10;;;;;;5015818;28;20052;-61
2022/03/15 06:30:46;;;;;;;15.43;10.18;;;13.90;91.90;;;;;;5015833;28;20057;-61
2022/03/15 06:33:16;;;;;;;12.65;8.90;;;14.10;91.70;;;;;;5016775;28;20053;-61
2022/03/15 06:35:46;;;;;;;12.63;7.38;;;14.20;91.30;;;;;;5016701;28;20104;-61
2022/03/15 06:38:14;;;;;;;12.20;8.25;;;14.40;91.00;;;;;;5015716;28;20473;-61
2022/03/15 06:40:42;;;;;;;11.02;7.45;;;14.60;91.00;;;;;;5016439;28;20034;-61
2022/03/15 06:43:13;;;;;;;8.82;6.43;;;14.80;90.80;;;;;;5016436;28;20045;-61
2022/03/15 06:45:42;;;;;;;8.10;5.47;;;14.90;89.90;;;;;;5016650;28;20038;-61
2022/03/15 06:48:10;;;;;;;6.90;5.03;;;15.10;88.00;;;;;;5015518;28;20492;-61
2022/03/15 06:50:40;;;;;;;7.63;5.57;;;15.20;87.30;;;;;;5016653;28;20042;-61
2022/03/15 06:53:09;;;;;;;8.23;4.35;;;15.40;86.90;;;;;;5014882;28;20049;-61
2022/03/15 06:55:36;;;;;;;6.03;4.65;;;15.60;86.30;;;;;;5015057;28;20038;-61
2022/03/15 06:58:04;;;;;;;6.10;4.88;;;15.70;86.10;;;;;;4998935;28;20377;-61
2022/03/15 07:00:31;;;;;;;6.45;5.35;;;15.90;85.80;;;;;;5015005;28;20427;-61
2022/03/15 07:02:59;;;;;;;6.15;4.72;;;16.00;85.60;;;;;;5014725;28;20068;-61
2022/03/15 07:05:26;;;;;;;6.55;4.30;;;16.20;85.60;;;;;;5016562;28;20042;-61
2022/03/15 07:07:54;;;;;;;6.80;4.35;;;16.30;85.20;;;;;;5015333;28;20065;-61
2022/03/15 07:10:22;;;;;;;6.57;4.75;;;16.50;84.80;;;;;;5016083;28;20096;-61
2022/03/15 07:12:49;;;;;;;4.28;3.42;;;16.60;83.10;;;;;;5014788;28;20054;-61
2022/03/15 07:15:17;;;;;;;9.50;4.50;;;16.70;82.80;;;;;;5014799;28;20042;-62
2022/03/15 07:18:11;;;;;;;4.88;3.88;;;16.80;83.10;;;;;;5014809;28;20050;-61
2022/03/15 07:20:38;;;;;;;5.40;3.70;;;16.90;83.20;;;;;;5015085;28;20124;-61
2022/03/15 07:23:06;;;;;;;6.25;3.88;;;17.00;81.70;;;;;;5014754;28;20140;-61
2022/03/15 07:25:33;;;;;;;5.25;3.97;;;17.00;80.40;;;;;;5015956;28;20073;-61
2022/03/15 07:28:01;;;;;;;5.88;3.78;;;17.00;80.20;;;;;;5015789;28;20050;-61
2022/03/15 07:30:29;;;;;;;5.18;3.88;;;17.00;80.50;;;;;;5014771;28;20104;-61
2022/03/15 07:32:59;;;;;;;5.30;3.15;;;17.00;79.90;;;;;;5014578;28;20470;-61
2022/03/15 07:35:28;;;;;;;6.05;3.65;;;17.00;79.90;;;;;;4995099;28;20041;-61
2022/03/15 07:37:56;;;;;;;6.13;3.88;;;17.00;79.50;;;;;;5014135;28;20057;-61
2022/03/15 07:40:24;;;;;;;5.88;3.63;;;17.10;80.00;;;;;;5010765;28;20044;-61
2022/03/15 07:42:53;;;;;;;4.68;3.50;;;17.10;78.60;;;;;;5012154;28;20042;-62
2022/03/15 07:45:20;;;;;;;4.80;3.35;;;17.10;77.30;;;;;;4994511;28;20105;-61
2022/03/15 07:47:48;;;;;;;5.25;3.70;;;17.20;77.00;;;;;;5005562;28;20042;-62
2022/03/15 07:50:17;;;;;;;6.70;3.63;;;17.40;76.80;;;;;;5015170;28;20121;-61
2022/03/15 07:52:47;;;;;;;6.95;4.72;;;17.40;75.90;;;;;;5008846;28;20104;-61
2022/03/15 07:55:15;;;;;;;6.60;4.75;;;17.50;76.20;;;;;;5010294;28;20046;-61
2022/03/15 07:57:42;;;;;;;5.78;3.95;;;17.60;76.20;;;;;;5025266;28;20058;-61
2022/03/15 08:00:10;;;;;;;5.97;3.70;;;17.70;75.20;;;;;;4995016;28;20412;-61
2022/03/15 08:02:43;;;;;;;4.72;3.50;;;17.80;75.10;;;;;;5011669;28;20108;-61
2022/03/15 08:05:11;;;;;;;6.05;3.90;;;17.80;74.80;;;;;;5012306;28;20052;-61
2022/03/15 08:07:40;;;;;;;6.63;4.88;;;17.80;75.40;;;;;;5005229;28;20495;-61
2022/03/15 08:10:09;;;;;;;7.13;3.83;;;17.90;76.20;;;;;;5023109;28;20030;-61
2022/03/15 08:12:38;;;;;;;6.13;3.95;;;18.00;75.30;;;;;;5006587;28;20046;-61
2022/03/15 08:15:07;;;;;;;5.45;3.75;;;18.00;75.30;;;;;;4995557;28;20046;-62
2022/03/15 08:17:36;;;;;;;4.28;3.25;;;18.00;75.80;;;;;;4993047;28;20038;-61
2022/03/15 08:20:05;;;;;;;5.60;3.55;;;18.00;75.60;;;;;;5011580;28;20042;-64
2022/03/15 08:22:33;;;;;;;6.47;3.53;;;18.10;75.80;;;;;;4996269;28;20046;-61
2022/03/15 08:25:02;;;;;;;6.10;4.25;;;18.10;76.00;;;;;;5023878;28;20121;-61
2022/03/15 08:27:31;;;;;;;5.47;4.25;;;18.20;75.90;;;;;;5008132;28;20491;-61
2022/03/15 08:29:59;;;;;;;5.05;3.45;;;18.20;74.60;;;;;;5004959;28;20042;-62
2022/03/15 08:32:26;;;;;;;6.05;3.53;;;18.20;72.90;;;;;;5023367;28;20038;-61
2022/03/15 08:34:56;;;;;;;4.78;3.50;;;18.20;71.00;;;;;;5017559;28;20056;-61
2022/03/15 08:37:24;;;;;;;4.50;3.45;;;18.20;69.80;;;;;;5011556;28;20058;-61
2022/03/15 08:39:51;;;;;;;5.80;3.97;;;18.10;70.20;;;;;;5013241;28;20408;-60
2022/03/15 08:42:22;;;;;;;5.72;3.35;;;18.10;71.20;;;;;;5013480;28;20141;-61
2022/03/15 08:44:49;;;;;;;5.80;3.92;;;18.10;72.10;;;;;;5013383;28;20057;-61
2022/03/15 08:47:17;;;;;;;8.32;3.63;;;18.20;72.30;;;;;;5013271;28;20093;-61
2022/03/15 08:49:44;;;;;;;4.25;2.97;;;18.30;72.20;;;;;;5013375;28;20045;-60
2022/03/15 08:52:12;;;;;;;5.28;3.40;;;18.40;71.20;;;;;;5013424;28;20060;-61
2022/03/15 08:54:40;;;;;;;4.75;3.30;;;18.30;69.40;;;;;;5014388;28;20121;-60
2022/03/15 08:57:10;;;;;;;5.65;4.25;;;18.30;69.50;;;;;;5013239;28;20515;-61
2022/03/15 08:59:38;;;;;;;7.15;3.63;;;18.40;69.20;;;;;;5013102;28;20042;-61
2022/03/15 09:02:08;;;;;;;4.20;3.13;;;18.40;69.50;;;;;;5014055;28;20133;-61
2022/03/15 09:04:36;;;;;;;5.28;3.70;;;18.50;70.20;;;;;;5032698;28;20054;-60
2022/03/15 09:07:04;;;;;;;3.92;2.92;;;18.50;69.90;;;;;;5016354;28;20064;-60
2022/03/15 09:09:31;;;;;;;4.28;3.55;;;18.20;69.50;;;;;;5016557;28;20069;-60
2022/03/15 09:11:59;;;;;;;6.25;3.83;;;18.20;70.00;;;;;;4999787;28;20091;-60
2022/03/15 09:14:26;;;;;;;4.68;3.05;;;18.00;69.00;;;;;;5033856;28;20041;-60
2022/03/15 09:16:54;;;;;;;5.43;3.20;;;17.90;68.40;;;;;;5033892;28;20046;-60
2022/03/15 09:19:22;;;;;;;3.83;2.67;;;17.70;67.40;;;;;;5033892;28;20041;-60
2022/03/15 09:21:50;;;;;;;5.05;3.42;;;17.80;68.10;;;;;;5016213;28;20119;-60
2022/03/15 09:24:17;;;;;;;5.38;3.97;;;17.90;69.10;;;;;;5016157;28;20124;-61
2022/03/15 09:26:45;;;;;;;6.30;4.22;;;17.90;69.80;;;;;;5033713;28;20037;-61
2022/03/15 09:29:13;;;;;;;4.88;3.45;;;18.10;69.60;;;;;;5033524;28;20042;-61
2022/03/15 09:31:41;;;;;;;7.43;3.50;;;18.30;69.10;;;;;;5015071;28;20111;-61
2022/03/15 09:34:08;;;;;;;5.75;3.30;;;18.40;69.30;;;;;;5033641;28;20132;-61
2022/03/15 09:36:36;;;;;;;5.80;3.13;;;18.60;69.00;;;;;;5033452;28;20147;-61
2022/03/15 09:39:09;;;;;;;4.70;3.35;;;18.30;68.20;;;;;;5015843;28;20041;-61
2022/03/15 09:41:39;;;;;;;4.75;3.30;;;18.20;68.90;;;;;;4999405;28;20045;-60
2022/03/15 09:44:09;;;;;;;5.60;3.42;;;18.30;69.30;;;;;;5033597;28;20080;-60
2022/03/15 09:46:42;;;;;;;5.65;3.00;;;18.30;69.20;;;;;;5015830;28;20509;-61
2022/03/15 09:49:24;;;;;;;4.80;3.23;;;18.30;69.20;;;;;;5001393;28;20048;-61
2022/03/15 09:51:57;;;;;;;6.07;3.80;;;18.40;69.20;;;;;;5015923;28;20095;-61
2022/03/15 09:54:27;;;;;;;3.92;2.90;;;18.50;68.50;;;;;;5015454;28;20054;-61
2022/03/15 09:56:56;;;;;;;5.28;3.88;;;18.30;68.90;;;;;;5008384;28;20490;-62
2022/03/15 09:59:25;;;;;;;4.03;2.75;;;18.30;68.20;;;;;;5011210;28;20444;-62
2022/03/15 10:01:56;;;;;;;4.80;2.95;;;18.40;68.50;;;;;;5031625;28;20072;-62
2022/03/15 10:04:26;;;;;;;5.30;3.33;;;18.50;68.80;;;;;;5006831;28;20058;-61
2022/03/15 10:06:55;;;;;;;10.30;4.47;;;18.50;69.20;;;;;;5012312;28;20313;-62
2022/03/15 10:09:24;;;;;;;4.38;3.03;;;18.60;68.90;;;;;;5024540;28;20137;-62
2022/03/15 10:11:52;;;;;;;4.85;3.10;;;18.60;67.90;;;;;;5014156;28;20033;-62
2022/03/15 10:14:20;;;;;;;6.97;3.65;;;18.50;68.10;;;;;;5024463;28;20034;-61
2022/03/15 10:16:50;;;;;;;5.30;3.35;;;18.50;68.60;;;;;;4989632;28;20050;-61
2022/03/15 10:19:17;;;;;;;6.13;3.45;;;18.60;68.70;;;;;;4995585;28;20046;-62
2022/03/15 10:21:53;;;;;;;4.32;2.80;;;18.60;68.90;;;;;;4996036;28;20044;-61
2022/03/15 10:24:23;;;;;;;9.00;3.88;;;18.80;68.30;;;;;;4979845;28;20045;-61
2022/03/15 10:26:52;;;;;;;6.43;3.15;;;18.70;68.80;;;;;;4995845;28;20069;-61
2022/03/15 10:29:21;;;;;;;6.82;2.88;;;18.80;67.80;;;;;;5013213;28;20471;-61
2022/03/15 10:31:51;;;;;;;4.13;2.80;;;18.80;67.80;;;;;;4996099;28;20381;-61
2022/03/15 10:34:21;;;;;;;7.22;2.88;;;18.90;68.00;;;;;;4995475;28;20515;-61
2022/03/15 10:36:51;;;;;;;4.45;3.25;;;18.80;67.80;;;;;;5013352;28;20100;-61
2022/03/15 10:39:20;;;;;;;8.00;3.22;;;18.60;67.70;;;;;;5013371;28;20046;-61
2022/03/15 10:41:52;;;;;;;4.80;3.25;;;18.60;67.60;;;;;;4995510;28;20057;-61
2022/03/15 10:44:29;;;;;;;3.92;2.95;;;18.40;66.50;;;;;;4983248;28;20061;-61
2022/03/15 10:46:58;;;;;;;4.43;2.67;;;18.40;66.80;;;;;;5016543;28;20046;-61
2022/03/15 10:49:26;;;;;;;3.15;2.80;;;18.50;66.60;;;;;;5016636;28;20053;-61
2022/03/15 10:51:57;;;;;;;4.10;2.78;;;18.50;67.00;;;;;;4999324;28;20149;-61
2022/03/15 10:54:26;;;;;;;3.55;2.45;;;18.60;66.40;;;;;;4998796;28;20385;-61
2022/03/15 10:56:56;;;;;;;3.30;2.10;;;18.70;65.90;;;;;;4999035;28;20038;-61
2022/03/15 10:59:26;;;;;;;5.15;3.60;;;18.60;63.10;;;;;;5016212;28;20137;-61
2022/03/15 11:01:54;;;;;;;4.72;3.20;;;18.40;64.50;;;;;;4998866;28;20045;-61
2022/03/15 11:04:22;;;;;;;4.65;2.70;;;18.60;65.00;;;;;;5016600;28;20077;-61
2022/03/15 11:06:51;;;;;;;4.60;3.17;;;18.40;63.60;;;;;;5016302;28;20068;-61
2022/03/15 11:09:36;;;;;;;4.55;2.75;;;18.00;63.70;;;;;;4999042;28;20368;-61
2022/03/15 11:12:08;;;;;;;6.30;3.10;;;17.70;64.00;;;;;;4998587;28;20049;-61
2022/03/15 11:14:46;;;;;;;4.90;2.85;;;17.70;63.40;;;;;;4998608;28;20053;-61
2022/03/15 11:17:20;;;;;;;4.10;2.35;;;17.40;64.00;;;;;;5016265;28;20042;-61
2022/03/15 11:19:56;;;;;;;5.72;2.92;;;17.20;64.10;;;;;;5016064;28;20127;-61
2022/03/15 11:22:27;;;;;;;4.47;3.00;;;16.90;64.80;;;;;;4982125;28;20052;-61
2022/03/15 11:25:15;;;;;;;9.88;6.35;;;17.10;65.30;;;;;;5015936;28;20099;-61
2022/03/15 11:27:45;;;;;;;5.65;2.72;;;17.30;67.10;;;;;;4998602;28;20033;-61
2022/03/15 11:30:18;;;;;;;4.05;2.83;;;17.40;63.60;;;;;;4998553;28;20053;-61
2022/03/15 11:32:47;;;;;;;4.47;3.25;;;17.50;64.10;;;;;;4998118;28;20054;-61
2022/03/15 11:35:22;;;;;;;5.45;3.22;;;17.00;63.40;;;;;;4998319;28;20070;-61
2022/03/15 11:37:52;;;;;;;5.35;2.92;;;16.90;63.70;;;;;;5015870;28;20073;-61
2022/03/15 11:40:21;;;;;;;4.20;2.72;;;16.80;63.70;;;;;;4982136;28;20510;-61
2022/03/15 11:42:55;;;;;;;5.55;2.42;;;16.90;64.10;;;;;;4998182;28;20510;-61
2022/03/15 11:45:38;;;;;;;3.92;2.65;;;17.00;64.10;;;;;;4997983;28;20046;-61
2022/03/15 11:48:23;;;;;;;6.35;4.00;;;17.10;63.00;;;;;;5015463;28;20047;-61
2022/03/15 11:51:16;;;;;;;4.82;3.38;;;17.30;63.60;;;;;;4998708;28;20068;-61
2022/03/15 11:54:12;;;;;;;4.38;3.10;;;17.50;63.40;;;;;;4981375;28;20046;-61
2022/03/15 11:56:49;;;;;;;4.20;2.80;;;17.50;63.90;;;;;;4981360;28;20049;-61
2022/03/15 11:59:17;;;;;;;5.00;2.65;;;17.60;63.30;;;;;;5015390;28;20042;-62
2022/03/15 12:01:47;;;;;;;4.53;2.72;;;17.70;64.50;;;;;;4997792;28;20045;-61
2022/03/15 12:04:17;;;;;;;5.45;3.65;;;17.80;64.30;;;;;;5015068;28;20050;-61
2022/03/15 12:06:57;;;;;;;4.30;2.38;;;18.00;63.30;;;;;;4981719;28;20057;-61
2022/03/15 12:09:30;;;;;;;4.43;2.67;;;18.00;62.40;;;;;;5015163;28;20499;-61
2022/03/15 12:12:08;;;;;;;3.88;2.78;;;18.00;62.60;;;;;;4981682;28;20455;-61
2022/03/15 12:14:51;;;;;;;5.45;3.38;;;18.00;62.10;;;;;;4997175;28;20116;-61
2022/03/15 12:17:20;;;;;;;7.22;3.40;;;18.00;61.60;;;;;;4997442;28;20088;-61
2022/03/15 12:19:50;;;;;;;4.88;3.03;;;18.00;61.70;;;;;;4981635;28;20046;-61
2022/03/15 12:22:31;;;;;;;4.53;3.00;;;17.90;63.40;;;;;;4997467;28;20038;-63
2022/03/15 12:25:10;;;;;;;4.57;3.22;;;17.90;64.00;;;;;;4997363;28;20050;-61
2022/03/15 12:28:01;;;;;;;5.82;3.30;;;18.00;67.80;;;;;;4997052;28;20504;-63
2022/03/15 12:30:34;;;;;;;7.07;3.72;;;18.10;67.00;;;;;;5014669;28;20104;-61
2022/03/15 12:33:02;;;;;;;9.23;6.78;;;18.10;67.20;;;;;;4997174;28;20144;-61
2022/03/15 12:35:32;;;;;;;4.55;3.75;;;18.10;65.40;;;;;;4981295;28;20053;-61
2022/03/15 12:38:10;;;;;;;5.47;3.45;;;18.10;64.30;;;;;;5014533;28;20053;-61
2022/03/15 12:40:45;;;;;;;4.97;3.33;;;18.10;64.20;;;;;;4980737;28;20065;-61
2022/03/15 12:43:23;;;;;;;9.13;4.35;;;17.90;64.50;;;;;;4997191;28;20056;-61
2022/03/15 12:45:51;;;;;;;5.47;3.83;;;17.90;65.00;;;;;;4997058;28;20120;-61
2022/03/15 12:48:36;;;;;;;6.60;3.83;;;17.80;64.40;;;;;;5014243;28;20132;-61
2022/03/15 12:51:16;;;;;;;6.10;3.80;;;17.70;64.20;;;;;;5014330;28;20443;-61
2022/03/15 12:53:48;;;;;;;7.60;3.72;;;17.50;63.40;;;;;;4996679;28;20391;-61
2022/03/15 12:56:15;;;;;;;4.88;3.75;;;17.50;64.30;;;;;;5014164;28;20044;-61
2022/03/15 12:58:43;;;;;;;5.47;3.17;;;17.40;64.50;;;;;;5014293;28;20076;-61